Beauvechain Air Base

EBBE · Brabant Wallon, Wallonia, 比利时

METAR的历史 EBBE · Beauvechain Air Base

下面你可以看到过去几天的METARs。 选择年份以浏览从2007年开始的旧METAR。

2024年7月21日

时间 代码 天气 温度 能见度 天花板 METAR/SPECI
01:50
V
22 °C 10 km+ - 120° 120° 4 kt METAR EBBR 202350Z 12004KT CAVOK 22/19 Q1006 NOSIG
01:20
V
22 °C 10 km+ - 100° 100° 2 kt METAR EBBR 202320Z 10002KT CAVOK 22/19 Q1006 NOSIG
00:50
V
22 °C 10 km+ - 090° 090° 4 kt METAR EBBR 202250Z 09004KT CAVOK 22/19 Q1005 NOSIG
00:20
V
22 °C 10 km+ - 080° 080° 3 kt METAR EBBR 202220Z 08003KT CAVOK 22/19 Q1006 NOSIG

2024年7月20日

时间 代码 天气 温度 能见度 天花板 METAR/SPECI
23:50
V
22 °C 10 km+ - 050° 050° 2 kt METAR EBBR 202150Z 05002KT CAVOK 22/19 Q1006 NOSIG
23:20
V
22 °C 10 km+ - 040° 040° 3 kt METAR EBBR 202120Z 04003KT CAVOK 22/19 Q1006 NOSIG
22:50
V
22 °C 10 km+ - 010° 010° 3 kt METAR EBBR 202050Z 01003KT 340V080 CAVOK 22/20 Q1006 NOSIG
22:20
V
23 °C 10 km+ - 080° 080° 4 kt METAR EBBR 202020Z 08004KT CAVOK 23/20 Q1006 NOSIG
21:50
V
24 °C 10 km+ - 030° 030° 4 kt METAR EBBR 201950Z 03004KT CAVOK 24/20 Q1006 NOSIG
21:20
V
26 °C 10 km+ - 360° 360° 5 kt METAR EBBR 201920Z 36005KT 9999 VCSH NSC 26/19 Q1006 NOSIG
20:50
V
27 °C 10 km+ - Var Var 2 kt METAR EBBR 201850Z VRB02KT 9999 VCSH NSC 27/20 Q1006 NOSIG
20:20
V
27 °C 10 km+ - 340° 340° 4 kt METAR EBBR 201820Z 34004KT CAVOK 27/19 Q1006 NOSIG
19:50
V
28 °C 10 km+ - 310° 310° 4 kt METAR EBBR 201750Z 31004KT 290V360 CAVOK 28/19 Q1006 NOSIG
19:20
V
29 °C 10 km+ - 300° 300° 4 kt METAR EBBR 201720Z 30004KT 270V330 CAVOK 29/19 Q1006 NOSIG
18:50
V
29 °C 10 km+ - 280° 280° 6 kt METAR EBBR 201650Z 28006KT 240V330 CAVOK 29/19 Q1006 NOSIG
18:20
V
29 °C 10 km+ - 220° 220° 6 kt METAR EBBR 201620Z 22006KT 180V260 CAVOK 29/20 Q1006 NOSIG
17:50
V
29 °C 10 km+ - 230° 230° 5 kt METAR EBBR 201550Z 23005KT CAVOK 29/19 Q1007 NOSIG
17:20
V
30 °C 10 km+ - 230° 230° 6 kt METAR EBBR 201520Z 23006KT 180V280 CAVOK 30/19 Q1007 NOSIG
16:50
V
30 °C 10 km+ - 240° 240° 4 kt METAR EBBR 201450Z 24004KT 130V290 9999 FEW048 30/20 Q1007 NOSIG
16:20
V
30 °C 10 km+ - 220° 220° 6 kt METAR EBBR 201420Z 22006KT 180V260 CAVOK 30/19 Q1007 NOSIG
15:50
V
29 °C 10 km+ - 210° 210° 8 kt METAR EBBR 201350Z 21008KT 190V260 CAVOK 29/19 Q1008 NOSIG
15:20
V
30 °C 10 km+ - 190° 190° 9 kt METAR EBBR 201320Z 19009KT 160V220 CAVOK 30/18 Q1008 NOSIG
14:50
V
30 °C 10 km+ - 190° 190° 5 kt METAR EBBR 201250Z 19005KT 140V270 CAVOK 30/18 Q1008 NOSIG
14:20
V
29 °C 10 km+ - 200° 200° 5 kt METAR EBBR 201220Z 20005KT 160V220 CAVOK 29/18 Q1008 NOSIG
13:50
V
29 °C 10 km+ - 170° 170° 6 kt METAR EBBR 201150Z 17006KT 140V210 CAVOK 29/18 Q1008 NOSIG
13:20
V
29 °C 10 km+ - 160° 160° 7 kt METAR EBBR 201120Z 16007KT 140V220 CAVOK 29/17 Q1009 NOSIG
12:50
V
28 °C 10 km+ - 190° 190° 3 kt METAR EBBR 201050Z 19003KT 120V240 CAVOK 28/18 Q1009 NOSIG
12:20
V
28 °C 10 km+ - Var Var 4 kt METAR EBBR 201020Z VRB04KT CAVOK 28/18 Q1009 NOSIG
11:50
V
27 °C 10 km+ - 180° 180° 5 kt METAR EBBR 200950Z 18005KT 130V200 CAVOK 27/18 Q1010 NOSIG
11:20
V
26 °C 10 km+ - 160° 160° 5 kt METAR EBBR 200920Z 16005KT 120V190 CAVOK 26/18 Q1010 NOSIG
10:50
V
27 °C 10 km+ - 160° 160° 3 kt METAR EBBR 200850Z 16003KT 090V240 CAVOK 27/18 Q1010 NOSIG
10:20
V
26 °C 10 km+ - 160° 160° 5 kt METAR EBBR 200820Z 16005KT 130V190 CAVOK 26/18 Q1010 NOSIG
09:50
V
25 °C 10 km+ - 160° 160° 4 kt METAR EBBR 200750Z 16004KT 130V200 9999 SCT084CB 25/17 Q1010 TEMPO 4000 SHRA
09:20
V
25 °C 10 km+ - 160° 160° 3 kt METAR EBBR 200720Z 16003KT 120V210 CAVOK 25/17 Q1011 TEMPO 4000 SHRA
08:50
V
24 °C 10 km+ - 130° 130° 4 kt METAR EBBR 200650Z 13004KT 090V160 CAVOK 24/16 Q1010 TEMPO 4000 SHRA
08:20
V
23 °C 10 km+ - 140° 140° 5 kt METAR EBBR 200620Z 14005KT CAVOK 23/16 Q1011 TEMPO 4000 SHRA
07:50
V
22 °C 10 km+ - Var Var 2 kt METAR EBBR 200550Z VRB02KT CAVOK 22/17 Q1011 NOSIG
07:20
V
21 °C 10 km+ - 130° 130° 2 kt METAR EBBR 200520Z 13002KT CAVOK 21/16 Q1011 NOSIG
06:50
V
18 °C 10 km+ - Var Var 2 kt METAR EBBR 200450Z VRB02KT CAVOK 18/16 Q1011 NOSIG
06:20
V
18 °C 10 km+ - 120° 120° 3 kt METAR EBBR 200420Z 12003KT CAVOK 18/15 Q1011 NOSIG
05:50
V
18 °C 10 km+ - 130° 130° 4 kt METAR EBBR 200350Z 13004KT CAVOK 18/15 Q1011 NOSIG
05:20
V
18 °C 10 km+ - 120° 120° 4 kt METAR EBBR 200320Z 12004KT CAVOK 18/15 Q1012 NOSIG
04:50
V
18 °C 10 km+ - 120° 120° 3 kt METAR EBBR 200250Z 12003KT CAVOK 18/15 Q1012 NOSIG
04:20
V
18 °C 10 km+ - 120° 120° 3 kt METAR EBBR 200220Z 12003KT CAVOK 18/15 Q1012 NOSIG
03:50
V
18 °C 10 km+ - 120° 120° 2 kt METAR EBBR 200150Z 12002KT CAVOK 18/15 Q1012 NOSIG
03:20
V
19 °C 10 km+ - 140° 140° 4 kt METAR EBBR 200120Z 14004KT CAVOK 19/15 Q1012 NOSIG
02:50
V
20 °C 10 km+ - 140° 140° 4 kt METAR EBBR 200050Z 14004KT CAVOK 20/15 Q1013 NOSIG
02:20
V
20 °C 10 km+ - 140° 140° 4 kt METAR EBBR 200020Z 14004KT CAVOK 20/15 Q1013 NOSIG
01:50
V
20 °C 10 km+ - 140° 140° 4 kt METAR EBBR 192350Z 14004KT CAVOK 20/15 Q1014 NOSIG
01:20
V
22 °C 10 km+ - 130° 130° 5 kt METAR EBBR 192320Z 13005KT CAVOK 22/15 Q1014 NOSIG
00:50
V
21 °C 10 km+ - 120° 120° 5 kt METAR EBBR 192250Z 12005KT CAVOK 21/15 Q1014 NOSIG
00:20
V
22 °C 10 km+ - 120° 120° 4 kt METAR EBBR 192220Z 12004KT CAVOK 22/15 Q1014 NOSIG

2024年7月19日

时间 代码 天气 温度 能见度 天花板 METAR/SPECI
23:50
V
22 °C 10 km+ - 130° 130° 5 kt METAR EBBR 192150Z 13005KT CAVOK 22/16 Q1015 NOSIG
23:20
V
22 °C 10 km+ - 120° 120° 4 kt METAR EBBR 192120Z 12004KT CAVOK 22/16 Q1015 NOSIG
22:50
V
23 °C 10 km+ - 120° 120° 5 kt METAR EBBR 192050Z 12005KT CAVOK 23/16 Q1015 NOSIG
22:20
V
23 °C 10 km+ - 110° 110° 4 kt METAR EBBR 192020Z 11004KT CAVOK 23/16 Q1015 NOSIG
21:50
V
24 °C 10 km+ - 100° 100° 3 kt METAR EBBR 191950Z 10003KT CAVOK 24/16 Q1015 NOSIG
21:20
V
25 °C 10 km+ - 120° 120° 4 kt METAR EBBR 191920Z 12004KT CAVOK 25/16 Q1015 NOSIG
20:50
V
26 °C 10 km+ - 110° 110° 3 kt METAR EBBR 191850Z 11003KT CAVOK 26/17 Q1015 NOSIG
20:20
V
26 °C 10 km+ - 080° 080° 4 kt METAR EBBR 191820Z 08004KT CAVOK 26/17 Q1015 NOSIG
19:50
V
26 °C 10 km+ - 060° 060° 4 kt METAR EBBR 191750Z 06004KT CAVOK 26/17 Q1016 NOSIG
19:20
V
29 °C 10 km+ - 100° 100° 3 kt METAR EBBR 191720Z 10003KT 070V160 CAVOK 29/16 Q1016 NOSIG
18:50
V
29 °C 10 km+ - 120° 120° 3 kt METAR EBBR 191650Z 12003KT 070V150 CAVOK 29/16 Q1016 NOSIG
18:20
V
28 °C 10 km+ - 120° 120° 3 kt METAR EBBR 191620Z 12003KT CAVOK 28/15 Q1016 NOSIG
17:50
V
28 °C 10 km+ - 140° 140° 4 kt METAR EBBR 191550Z 14004KT 110V170 CAVOK 28/15 Q1016 NOSIG
17:20
V
28 °C 10 km+ - Var Var 2 kt METAR EBBR 191520Z VRB02KT CAVOK 28/16 Q1017 NOSIG
16:50
V
29 °C 10 km+ - 140° 140° 4 kt METAR EBBR 191450Z 14004KT 090V190 CAVOK 29/15 Q1017 NOSIG
16:20
V
29 °C 10 km+ - 150° 150° 3 kt METAR EBBR 191420Z 15003KT 090V200 CAVOK 29/15 Q1017 NOSIG
15:50
V
29 °C 10 km+ - 100° 100° 4 kt METAR EBBR 191350Z 10004KT 070V190 CAVOK 29/15 Q1017 NOSIG
15:20
V
28 °C 10 km+ - 150° 150° 5 kt METAR EBBR 191320Z 15005KT 110V180 CAVOK 28/15 Q1018 NOSIG
14:50
V
29 °C 10 km+ - 180° 180° 5 kt METAR EBBR 191250Z 18005KT 140V220 CAVOK 29/15 Q1018 NOSIG
14:20
V
29 °C 10 km+ - 170° 170° 5 kt METAR EBBR 191220Z 17005KT 120V230 CAVOK 29/15 Q1018 NOSIG
13:50
V
28 °C 10 km+ - 190° 190° 4 kt METAR EBBR 191150Z 19004KT 150V240 CAVOK 28/14 Q1018 NOSIG
13:20
V
28 °C 10 km+ - 200° 200° 5 kt METAR EBBR 191120Z 20005KT 160V230 CAVOK 28/16 Q1018 NOSIG
12:50
V
28 °C 10 km+ - Var Var 4 kt METAR EBBR 191050Z VRB04KT CAVOK 28/16 Q1018 NOSIG
12:20
V
28 °C 10 km+ - 160° 160° 4 kt METAR EBBR 191020Z 16004KT 090V210 CAVOK 28/17 Q1019 NOSIG
11:50
V
27 °C 10 km+ - 180° 180° 4 kt METAR EBBR 190950Z 18004KT 140V210 CAVOK 27/16 Q1019 NOSIG
11:20
V
26 °C 10 km+ - 190° 190° 3 kt METAR EBBR 190920Z 19003KT 140V240 CAVOK 26/17 Q1019 NOSIG
10:50
V
25 °C 10 km+ - 180° 180° 5 kt METAR EBBR 190850Z 18005KT CAVOK 25/17 Q1019 NOSIG
10:20
V
24 °C 10 km+ - 190° 190° 6 kt METAR EBBR 190820Z 19006KT CAVOK 24/17 Q1019 NOSIG
09:50
V
24 °C 10 km+ - 180° 180° 5 kt METAR EBBR 190750Z 18005KT CAVOK 24/16 Q1019 NOSIG
09:20
V
23 °C 10 km+ - 170° 170° 4 kt METAR EBBR 190720Z 17004KT CAVOK 23/16 Q1019 NOSIG
08:50
V
22 °C 10 km+ - 170° 170° 3 kt METAR EBBR 190650Z 17003KT 140V200 CAVOK 22/16 Q1019 NOSIG
08:20
V
21 °C 10 km+ - Var Var 2 kt METAR EBBR 190620Z VRB02KT CAVOK 21/16 Q1019 NOSIG
07:50
V
19 °C 10 km+ - 050° 050° 1 kt METAR EBBR 190550Z 05001KT CAVOK 19/17 Q1019 NOSIG
07:20
V
18 °C 10 km+ - 150° 150° 2 kt METAR EBBR 190520Z 15002KT CAVOK 18/17 Q1019 NOSIG
06:50
V
18 °C 10 km+ - 130° 130° 4 kt METAR EBBR 190450Z 13004KT CAVOK 18/16 Q1019 NOSIG
06:20
V
18 °C 10 km+ - 100° 100° 2 kt METAR EBBR 190420Z 10002KT CAVOK 18/16 Q1019 NOSIG
05:50
V
18 °C 10 km+ - Var Var 2 kt METAR EBBR 190350Z VRB02KT CAVOK 18/16 Q1019 NOSIG
05:20
V
18 °C 10 km+ - 120° 120° 3 kt METAR EBBR 190320Z 12003KT CAVOK 18/16 Q1019 NOSIG
04:50
V
18 °C 10 km+ - 150° 150° 2 kt METAR EBBR 190250Z 15002KT CAVOK 18/16 Q1019 NOSIG
04:20
V
18 °C 10 km+ - 360° 360° 0 kt METAR EBBR 190220Z 00000KT CAVOK 18/16 Q1019 NOSIG
03:50
V
18 °C 10 km+ - 110° 110° 2 kt METAR EBBR 190150Z 11002KT CAVOK 18/17 Q1019 NOSIG
03:20
V
18 °C 10 km+ - 110° 110° 1 kt METAR EBBR 190120Z 11001KT CAVOK 18/16 Q1019 NOSIG
02:50
V
19 °C 10 km+ - 110° 110° 1 kt METAR EBBR 190050Z 11001KT CAVOK 19/16 Q1020 NOSIG
02:20
V
20 °C 10 km+ - 040° 040° 1 kt METAR EBBR 190020Z 04001KT CAVOK 20/16 Q1020 NOSIG
01:50
V
20 °C 10 km+ - 360° 360° 0 kt METAR EBBR 182350Z 00000KT CAVOK 20/17 Q1020 NOSIG
01:20
V
20 °C 10 km+ - 360° 360° 0 kt METAR EBBR 182320Z 00000KT CAVOK 20/17 Q1020 NOSIG
00:50
V
21 °C 10 km+ - 070° 070° 1 kt METAR EBBR 182250Z 07001KT CAVOK 21/16 Q1020 NOSIG
00:20
V
22 °C 10 km+ - 090° 090° 2 kt METAR EBBR 182220Z 09002KT CAVOK 22/16 Q1020 NOSIG

2024年7月18日

时间 代码 天气 温度 能见度 天花板 METAR/SPECI
23:50
V
22 °C 10 km+ - 070° 070° 2 kt METAR EBBR 182150Z 07002KT CAVOK 22/16 Q1020 NOSIG
23:20
V
23 °C 10 km+ - 090° 090° 2 kt METAR EBBR 182120Z 09002KT CAVOK 23/16 Q1021 NOSIG
22:50
V
23 °C 10 km+ - 080° 080° 2 kt METAR EBBR 182050Z 08002KT CAVOK 23/15 Q1021 NOSIG
22:20
V
23 °C 10 km+ - 090° 090° 2 kt METAR EBBR 182020Z 09002KT CAVOK 23/15 Q1021 NOSIG
21:50
V
24 °C 10 km+ - 080° 080° 2 kt METAR EBBR 181950Z 08002KT CAVOK 24/16 Q1021 NOSIG
21:20
V
24 °C 10 km+ - 090° 090° 2 kt METAR EBBR 181920Z 09002KT CAVOK 24/16 Q1020 NOSIG
20:50
V
24 °C 10 km+ - 070° 070° 2 kt METAR EBBR 181850Z 07002KT CAVOK 24/16 Q1020 NOSIG
20:20
V
25 °C 10 km+ - 060° 060° 3 kt METAR EBBR 181820Z 06003KT CAVOK 25/17 Q1020 NOSIG
19:50
V
25 °C 10 km+ - 070° 070° 3 kt METAR EBBR 181750Z 07003KT 040V110 CAVOK 25/17 Q1020 NOSIG
19:20
V
26 °C 10 km+ - 050° 050° 3 kt METAR EBBR 181720Z 05003KT 350V060 CAVOK 26/16 Q1020 NOSIG
18:50
V
27 °C 10 km+ - 150° 150° 3 kt METAR EBBR 181650Z 15003KT 110V210 CAVOK 27/14 Q1020 NOSIG
18:20
V
28 °C 10 km+ - Var Var 1 kt METAR EBBR 181620Z VRB01KT CAVOK 28/15 Q1021 NOSIG
17:50
V
28 °C 10 km+ - Var Var 2 kt METAR EBBR 181550Z VRB02KT CAVOK 28/13 Q1021 NOSIG
17:20
V
27 °C 10 km+ - Var Var 2 kt METAR EBBR 181520Z VRB02KT CAVOK 27/14 Q1021 NOSIG
16:50
V
27 °C 10 km+ - 100° 100° 4 kt METAR EBBR 181450Z 10004KT 030V130 CAVOK 27/15 Q1021 NOSIG
16:20
V
27 °C 10 km+ - 170° 170° 5 kt METAR EBBR 181420Z 17005KT 140V230 CAVOK 27/14 Q1021 NOSIG
15:50
V
27 °C 10 km+ - 140° 140° 3 kt METAR EBBR 181350Z 14003KT 040V200 CAVOK 27/14 Q1021 NOSIG
15:20
V
27 °C 10 km+ - 170° 170° 6 kt METAR EBBR 181320Z 17006KT CAVOK 27/15 Q1021 NOSIG
14:50
V
26 °C 10 km+ - 130° 130° 4 kt METAR EBBR 181250Z 13004KT 040V170 CAVOK 26/15 Q1021 NOSIG
14:20
V
27 °C 10 km+ - Var Var 2 kt METAR EBBR 181220Z VRB02KT 9999 SCT048 27/15 Q1022 NOSIG
13:50
V
26 °C 10 km+ - Var Var 3 kt METAR EBBR 181150Z VRB03KT 9999 SCT048 26/13 Q1022 NOSIG
13:20
V
25 °C 10 km+ - Var Var 1 kt METAR EBBR 181120Z VRB01KT 9999 SCT046 25/15 Q1022 NOSIG
12:50
V
25 °C 10 km+ - Var Var 2 kt METAR EBBR 181050Z VRB02KT 9999 SCT044 25/15 Q1022 NOSIG
12:20
V
24 °C 10 km+ - Var Var 2 kt METAR EBBR 181020Z VRB02KT 9999 FEW042 24/16 Q1022 NOSIG
11:50
V
24 °C 10 km+ - Var Var 2 kt METAR EBBR 180950Z VRB02KT CAVOK 24/15 Q1022 NOSIG
11:20
V
24 °C 10 km+ - Var Var 2 kt METAR EBBR 180920Z VRB02KT CAVOK 24/15 Q1022 NOSIG
10:50
V
23 °C 10 km+ - 150° 150° 4 kt METAR EBBR 180850Z 15004KT 120V190 CAVOK 23/16 Q1022 NOSIG
10:20
V
22 °C 10 km+ - 140° 140° 4 kt METAR EBBR 180820Z 14004KT 090V170 CAVOK 22/16 Q1022 NOSIG
09:50
V
22 °C 10 km+ - 130° 130° 3 kt METAR EBBR 180750Z 13003KT 030V200 CAVOK 22/16 Q1022 NOSIG
09:20
V
20 °C 10 km+ - Var Var 2 kt METAR EBBR 180720Z VRB02KT CAVOK 20/16 Q1022 NOSIG
08:50
V
17 °C 10 km+ - Var Var 1 kt METAR EBBR 180650Z VRB01KT CAVOK 17/16 Q1022 NOSIG
08:20
V
16 °C 10 km+ - 070° 070° 2 kt METAR EBBR 180620Z 07002KT CAVOK 16/15 Q1022 NOSIG
07:50
V
15 °C 10 km+ - Var Var 1 kt METAR EBBR 180550Z VRB01KT CAVOK 15/14 Q1022 NOSIG
报告变更